Terminal Aerodrome Forecast
Issued by NWS

Home | Current Version | Previous Version | Text Only | Print | Product List | Glossary On
Versions: 1 2 3 4 5 6 7 8 9 10 11 12 13 14 15 16 17 18 19 20 21 22 23
302
FTUS44 KLZK 212337
TAFBPK
TAF
KBPK 212337Z 2200/2224 15008KT P6SM VCSH BKN050 OVC120
     FM220200 16007KT P6SM -RA VCTS BKN035CB OVC060
     FM220900 09007KT 5SM -RA BR BKN008 OVC025
     FM221500 02006KT 2SM -RA BR OVC005=

USA.gov is the U.S. government's official web portal to all federal, state and local government web resources and services.